createdAt,value
2022-08-12T00:02:03.172Z,68.29
2022-08-12T00:04:51.472Z,68.35
2022-08-12T00:07:36.760Z,68.93
2022-08-12T00:10:22.647Z,69.13
2022-08-12T00:13:08.094Z,68.49
2022-08-12T00:15:54.832Z,68.65
2022-08-12T00:18:40.313Z,69.17
2022-08-12T00:21:25.673Z,69.01
2022-08-12T00:24:12.807Z,70.24
2022-08-12T00:26:59.994Z,69.95
2022-08-12T00:29:48.140Z,68.55
2022-08-12T00:32:35.938Z,68.42
2022-08-12T00:35:27.398Z,70.34
2022-08-12T00:38:23.187Z,70.31
2022-08-12T00:41:08.590Z,71.43
2022-08-12T00:43:36.532Z,70.29
2022-08-12T00:46:22.255Z,71.18
2022-08-12T00:48:49.958Z,70.49
2022-08-12T00:51:17.259Z,69.66
2022-08-12T00:53:44.327Z,70.13
2022-08-12T00:56:11.199Z,71.86
2022-08-12T00:58:39.719Z,71.42
2022-08-12T01:01:08.705Z,71.94
2022-08-12T01:03:56.614Z,71.01
2022-08-12T01:06:45.876Z,71.09
2022-08-12T01:09:37.033Z,69.94
2022-08-12T01:12:05.842Z,70.14
2022-08-12T01:14:32.850Z,70.67
2022-08-12T01:16:59.954Z,71.60
2022-08-12T01:19:26.808Z,71.95
2022-08-12T01:22:16.494Z,74.17
2022-08-12T01:24:44.021Z,73.31
2022-08-12T01:27:11.359Z,73.97
2022-08-12T01:29:43.959Z,72.72
2022-08-12T01:32:14.374Z,73.11
2022-08-12T01:35:14.656Z,73.03
2022-08-12T01:37:48.592Z,68.93
2022-08-12T01:40:31.436Z,70.83
2022-08-12T01:43:09.928Z,71.60
2022-08-12T01:45:59.501Z,70.33
2022-08-12T01:48:43.739Z,71.37
2022-08-12T01:52:15.045Z,71.37
2022-08-12T01:54:38.684Z,70.94
2022-08-12T01:57:57.620Z,71.58
2022-08-12T02:00:17.458Z,71.27
2022-08-12T02:03:02.069Z,69.66
2022-08-12T02:06:16.002Z,70.17
2022-08-12T02:09:06.000Z,70.85
2022-08-12T02:11:36.129Z,72.49
2022-08-12T02:14:13.373Z,72.10
2022-08-12T02:16:46.650Z,72.59
2022-08-12T02:19:22.818Z,72.13
2022-08-12T02:21:49.988Z,72.59
2022-08-12T02:24:20.851Z,72.77
2022-08-12T02:26:51.625Z,71.89
2022-08-12T02:29:20.274Z,70.80
2022-08-12T02:31:47.748Z,69.56
2022-08-12T02:34:16.636Z,72.02
2022-08-12T02:36:44.983Z,72.26
2022-08-12T02:39:16.404Z,71.94
2022-08-12T02:41:44.680Z,72.25
2022-08-12T02:44:15.228Z,72.70
2022-08-12T02:46:49.190Z,72.33
2022-08-12T02:49:22.949Z,73.39
2022-08-12T02:51:50.408Z,72.29
2022-08-12T02:54:17.490Z,71.98
2022-08-12T02:56:50.146Z,72.67
2022-08-12T02:59:20.039Z,72.45
2022-08-12T03:02:04.358Z,72.64
2022-08-12T03:04:40.072Z,73.06
2022-08-12T03:07:14.828Z,72.97
2022-08-12T03:10:05.536Z,73.24
2022-08-12T03:12:43.651Z,73.94
2022-08-12T03:15:23.010Z,73.62
2022-08-12T03:18:25.413Z,73.73
2022-08-12T03:20:43.845Z,75.03
2022-08-12T03:23:19.359Z,74.18
2022-08-12T03:25:57.237Z,74.04
2022-08-12T03:28:42.512Z,74.42
2022-08-12T03:31:10.240Z,74.15
2022-08-12T03:33:39.936Z,72.38
2022-08-12T03:36:08.887Z,72.81
2022-08-12T03:38:38.673Z,73.82
2022-08-12T03:41:28.683Z,73.14
2022-08-12T03:44:30.579Z,72.79
2022-08-12T03:47:22.490Z,70.62
2022-08-12T03:50:10.033Z,73.21
2022-08-12T03:52:55.456Z,73.21
2022-08-12T03:55:40.786Z,73.12
2022-08-12T03:58:27.389Z,73.70
2022-08-12T04:00:54.547Z,74.06
2022-08-12T04:03:39.833Z,74.70
2022-08-12T04:06:09.370Z,74.66
2022-08-12T04:08:36.981Z,74.42
2022-08-12T04:11:22.773Z,74.91
2022-08-12T04:13:51.511Z,75.06
2022-08-12T04:16:18.555Z,75.08
2022-08-12T04:18:45.646Z,75.22
2022-08-12T04:21:12.505Z,74.55
2022-08-12T04:23:47.784Z,74.62
2022-08-12T04:26:15.535Z,74.08
2022-08-12T04:28:43.265Z,74.15
2022-08-12T04:31:10.219Z,73.74
2022-08-12T04:33:37.350Z,74.19
2022-08-12T04:36:04.550Z,74.44
2022-08-12T04:38:32.074Z,74.75
2022-08-12T04:40:59.511Z,74.59
2022-08-12T04:44:00.566Z,74.48
2022-08-12T04:46:13.262Z,74.85
2022-08-12T04:48:40.021Z,74.42
2022-08-12T04:51:07.932Z,74.60
2022-08-12T04:53:34.897Z,74.99
2022-08-12T04:56:01.805Z,74.69
2022-08-12T04:58:30.551Z,74.14
2022-08-12T05:00:57.681Z,74.27
2022-08-12T05:03:26.748Z,74.11
2022-08-12T05:05:56.675Z,73.92
2022-08-12T05:08:24.497Z,73.50
2022-08-12T05:10:51.337Z,73.45
2022-08-12T05:13:23.206Z,72.63
2022-08-12T05:16:03.662Z,73.25
2022-08-12T05:18:30.916Z,72.80
2022-08-12T05:21:00.935Z,72.38
2022-08-12T05:23:28.273Z,72.06
2022-08-12T05:25:57.134Z,72.86
2022-08-12T05:28:27.144Z,74.04
2022-08-12T05:30:55.134Z,73.81
2022-08-12T05:33:23.649Z,73.32
2022-08-12T05:35:50.530Z,73.26
2022-08-12T05:38:37.204Z,74.17
2022-08-12T05:41:06.331Z,74.45
2022-08-12T05:43:34.247Z,74.31
2022-08-12T05:46:01.109Z,76.08
2022-08-12T05:48:28.432Z,73.16
2022-08-12T05:50:56.773Z,74.59
2022-08-12T05:53:24.114Z,72.53
2022-08-12T05:55:53.384Z,72.43
2022-08-12T05:58:21.231Z,73.19
2022-08-12T06:00:48.131Z,73.84
2022-08-12T06:03:19.325Z,73.77
2022-08-12T06:05:54.441Z,74.22
2022-08-12T06:08:24.932Z,74.52
2022-08-12T06:10:52.573Z,73.64
2022-08-12T06:13:28.425Z,73.71
2022-08-12T06:16:07.515Z,74.06
2022-08-12T06:18:34.807Z,72.74
2022-08-12T06:21:02.415Z,73.26
2022-08-12T06:23:42.286Z,73.45
2022-08-12T06:26:12.761Z,72.61
2022-08-12T06:28:40.257Z,72.46
2022-08-12T06:31:26.312Z,70.15
2022-08-12T06:34:00.739Z,73.30
2022-08-12T06:36:42.912Z,72.85
2022-08-12T06:39:14.679Z,74.39
2022-08-12T06:42:05.041Z,74.35
2022-08-12T06:44:49.673Z,73.06
2022-08-12T06:47:18.624Z,73.18
2022-08-12T06:49:45.462Z,72.45
2022-08-12T06:52:12.270Z,72.81
2022-08-12T06:54:39.454Z,71.96
2022-08-12T06:58:01.804Z,72.83
2022-08-12T06:59:54.678Z,72.69
2022-08-12T07:02:22.866Z,73.82
2022-08-12T07:04:50.131Z,74.35
2022-08-12T07:07:18.537Z,73.35
2022-08-12T07:10:04.339Z,73.76
2022-08-12T07:12:32.414Z,73.74
2022-08-12T07:15:01.815Z,72.86
2022-08-12T07:17:37.816Z,73.92
2022-08-12T07:20:29.605Z,71.90
2022-08-12T07:22:58.587Z,73.49
2022-08-12T07:28:33.784Z,73.24
2022-08-12T07:31:00.656Z,72.41
2022-08-12T07:33:29.244Z,71.96
2022-08-12T07:35:58.669Z,72.76
2022-08-12T07:38:30.721Z,73.19
2022-08-12T07:41:15.777Z,72.03
2022-08-12T07:43:51.612Z,71.77
2022-08-12T07:46:21.309Z,71.21
2022-08-12T07:48:51.417Z,72.08
2022-08-12T07:51:24.978Z,71.08
2022-08-12T07:54:00.008Z,71.43
2022-08-12T07:56:31.661Z,71.20
2022-08-12T07:59:01.291Z,71.33
2022-08-12T08:01:28.666Z,70.92
2022-08-12T08:04:18.723Z,70.98
2022-08-12T08:06:47.421Z,71.32
2022-08-12T08:09:16.352Z,70.78
2022-08-12T08:12:01.713Z,70.88
2022-08-12T08:14:29.230Z,70.39
2022-08-12T08:17:00.984Z,70.28
2022-08-12T08:19:29.347Z,69.80
2022-08-12T08:21:57.103Z,69.12
2022-08-12T08:24:25.970Z,68.63
2022-08-12T08:26:54.756Z,67.80
2022-08-12T08:29:22.733Z,67.92
2022-08-12T08:31:54.437Z,67.88
2022-08-12T08:34:49.273Z,68.49
2022-08-12T08:37:10.569Z,68.14
2022-08-12T08:39:42.475Z,68.37
2022-08-12T08:42:28.147Z,67.49
2022-08-12T08:44:58.916Z,67.51
2022-08-12T08:47:26.099Z,67.77
2022-08-12T08:49:52.997Z,67.35
2022-08-12T08:52:38.820Z,68.13
2022-08-12T08:55:09.504Z,66.56
2022-08-12T08:57:43.163Z,66.39
2022-08-12T09:00:20.063Z,67.18
2022-08-12T09:06:01.549Z,66.32
2022-08-12T09:08:26.935Z,67.27
2022-08-12T09:11:00.028Z,66.70
2022-08-12T09:14:11.039Z,66.06
2022-08-12T09:16:20.748Z,66.33
2022-08-12T09:21:54.638Z,65.74
2022-08-12T09:24:22.214Z,66.09
2022-08-12T09:26:49.549Z,65.84
2022-08-12T09:30:10.660Z,66.59
2022-08-12T09:32:10.029Z,66.08
2022-08-12T09:34:55.013Z,65.74
2022-08-12T09:37:26.804Z,64.98
2022-08-12T09:40:04.396Z,64.97
2022-08-12T09:43:17.073Z,65.27
2022-08-12T09:46:07.083Z,64.75
2022-08-12T09:48:36.706Z,65.66
2022-08-12T09:51:16.794Z,64.40
2022-08-12T09:54:08.494Z,63.74
2022-08-12T09:56:59.709Z,64.48
2022-08-12T10:00:15.620Z,64.25
2022-08-12T10:02:48.462Z,63.83
2022-08-12T10:05:01.820Z,64.34
2022-08-12T10:07:39.686Z,64.33
2022-08-12T10:10:22.552Z,63.94
2022-08-12T10:13:11.073Z,64.17
2022-08-12T10:16:02.480Z,63.81
2022-08-12T10:18:32.806Z,64.05
2022-08-12T10:21:09.519Z,63.45
2022-08-12T10:23:39.916Z,63.06
2022-08-12T10:26:37.889Z,62.32
2022-08-12T10:30:38.144Z,62.52
2022-08-12T10:32:45.501Z,62.36
2022-08-12T10:35:11.711Z,62.04
2022-08-12T10:38:34.202Z,62.03
2022-08-12T10:40:32.203Z,61.18
2022-08-12T10:43:18.827Z,62.07
2022-08-12T10:45:49.721Z,61.01
2022-08-12T10:48:27.169Z,61.00
2022-08-12T10:51:51.991Z,60.48
2022-08-12T10:53:52.665Z,60.87
2022-08-12T10:56:19.768Z,60.78
2022-08-12T10:58:48.628Z,60.81
2022-08-12T11:01:49.541Z,60.51
2022-08-12T11:04:26.953Z,60.83
2022-08-12T11:07:07.263Z,61.16
2022-08-12T11:09:55.893Z,60.93
2022-08-12T11:12:56.298Z,60.63
2022-08-12T11:15:21.005Z,61.29
2022-08-12T11:17:54.019Z,60.97
2022-08-12T11:20:24.495Z,60.65
2022-08-12T11:23:25.486Z,61.26
2022-08-12T11:25:57.926Z,61.02
2022-08-12T11:28:34.602Z,61.47
2022-08-12T11:31:05.415Z,61.20
2022-08-12T11:34:05.665Z,61.89
2022-08-12T11:36:21.889Z,61.23
2022-08-12T11:38:50.696Z,61.39
2022-08-12T11:41:27.955Z,61.67
2022-08-12T11:44:35.278Z,61.66
2022-08-12T11:46:51.308Z,61.37
2022-08-12T11:49:31.787Z,61.76
2022-08-12T11:52:00.929Z,62.54
2022-08-12T11:54:29.616Z,63.23
2022-08-12T11:56:59.371Z,62.43
2022-08-12T12:02:18.955Z,62.70
2022-08-12T12:04:52.534Z,64.05
2022-08-12T12:07:22.715Z,62.79
2022-08-12T12:10:01.497Z,62.83
2022-08-12T12:12:28.293Z,62.01
2022-08-12T12:14:55.838Z,63.07
2022-08-12T12:17:37.991Z,62.87
2022-08-12T12:20:09.299Z,62.01
2022-08-12T12:22:40.776Z,61.46
2022-08-12T12:25:12.921Z,61.30
2022-08-12T12:28:05.903Z,61.39
2022-08-12T12:30:38.665Z,61.16
2022-08-12T12:33:07.298Z,60.09
2022-08-12T12:36:18.158Z,60.17
2022-08-12T12:38:25.151Z,60.64
2022-08-12T12:40:52.541Z,60.90
2022-08-12T12:43:28.477Z,60.67
2022-08-12T12:46:04.111Z,60.58
2022-08-12T12:48:31.290Z,60.44
2022-08-12T12:51:48.411Z,60.65
2022-08-12T12:54:06.439Z,60.88
2022-08-12T12:56:35.194Z,61.33
2022-08-12T12:59:03.845Z,61.52
2022-08-12T13:01:37.776Z,60.05
2022-08-12T13:04:12.115Z,60.11
2022-08-12T13:06:42.034Z,60.53
2022-08-12T13:09:13.241Z,60.32
2022-08-12T13:11:41.390Z,58.00
2022-08-12T13:14:27.913Z,56.22
2022-08-12T13:16:56.443Z,54.75
2022-08-12T13:19:36.034Z,55.18
2022-08-12T13:22:19.242Z,55.21
2022-08-12T13:24:55.569Z,54.40
2022-08-12T13:27:35.270Z,54.62
2022-08-12T13:30:11.375Z,56.24
2022-08-12T13:32:57.727Z,56.24
2022-08-12T13:35:33.317Z,54.55
2022-08-12T13:38:34.491Z,54.49
2022-08-12T13:41:03.496Z,52.70
2022-08-12T13:43:40.973Z,52.05
2022-08-12T13:46:12.375Z,50.42
2022-08-12T13:48:45.138Z,50.16
2022-08-12T13:51:13.991Z,50.31
2022-08-12T13:53:58.947Z,50.97
2022-08-12T13:56:31.510Z,50.99
2022-08-12T13:59:08.471Z,52.00
2022-08-12T14:01:40.726Z,49.89
2022-08-12T14:04:11.408Z,51.42
2022-08-12T14:06:40.288Z,51.52
2022-08-12T14:09:15.248Z,52.68
2022-08-12T14:11:51.222Z,55.19
2022-08-12T14:14:27.432Z,55.90
2022-08-12T14:16:54.277Z,55.36
2022-08-12T14:19:22.905Z,55.40
2022-08-12T14:22:00.883Z,58.36
2022-08-12T14:24:35.408Z,56.40
2022-08-12T14:27:09.332Z,57.84
2022-08-12T14:30:04.803Z,58.30
2022-08-12T14:32:35.344Z,59.41
2022-08-12T14:35:09.210Z,60.19
2022-08-12T14:37:57.745Z,58.23
2022-08-12T14:40:29.681Z,57.98
2022-08-12T14:42:58.267Z,59.56
2022-08-12T14:45:44.336Z,57.98
2022-08-12T14:48:14.847Z,60.54
2022-08-12T14:51:03.264Z,60.96
2022-08-12T14:59:57.180Z,62.18
2022-08-12T15:02:25.962Z,62.38
2022-08-12T15:04:56.123Z,61.67
2022-08-12T15:07:33.337Z,61.92
2022-08-12T15:10:10.169Z,62.17
2022-08-12T15:12:40.644Z,62.06
2022-08-12T15:15:10.239Z,63.11
2022-08-12T15:17:38.696Z,62.12
2022-08-12T15:20:32.010Z,62.69
2022-08-12T15:22:55.685Z,62.67
2022-08-12T15:25:22.715Z,62.80
2022-08-12T15:28:05.709Z,62.99
2022-08-12T15:30:35.322Z,62.09
2022-08-12T15:33:12.948Z,61.57
2022-08-12T15:35:50.320Z,62.50
2022-08-12T15:38:25.231Z,64.57
2022-08-12T15:40:53.672Z,64.16
2022-08-12T15:44:16.901Z,63.08
2022-08-12T15:46:15.935Z,62.39
2022-08-12T15:48:47.491Z,63.80
2022-08-12T15:51:57.646Z,64.82
2022-08-12T15:54:34.368Z,65.47
2022-08-12T15:57:06.040Z,66.35
2022-08-12T16:00:02.314Z,66.43
2022-08-12T16:02:26.840Z,66.62
2022-08-12T16:04:54.281Z,67.03
2022-08-12T16:07:29.580Z,67.15
2022-08-12T16:10:05.466Z,65.06
2022-08-12T16:12:43.197Z,66.13
2022-08-12T16:15:13.437Z,67.14
2022-08-12T16:18:18.175Z,68.37
2022-08-12T16:20:33.437Z,66.60
2022-08-12T16:23:04.379Z,66.45
2022-08-12T16:26:06.258Z,69.44
2022-08-12T16:28:37.616Z,68.11
2022-08-12T16:31:05.637Z,68.40
2022-08-12T16:33:59.107Z,67.40
2022-08-12T16:36:25.569Z,67.92
2022-08-12T16:38:52.720Z,66.31
2022-08-12T16:41:19.548Z,67.98
2022-08-12T16:43:46.812Z,69.41
2022-08-12T16:46:32.264Z,67.25
2022-08-12T16:49:04.292Z,66.89
2022-08-12T16:51:45.975Z,66.36
2022-08-12T16:54:19.209Z,67.29
2022-08-12T16:56:54.840Z,67.42
2022-08-12T16:59:30.918Z,66.75
2022-08-12T17:02:18.041Z,66.52
2022-08-12T17:04:59.865Z,65.90
2022-08-12T17:07:36.472Z,66.46
2022-08-12T17:10:08.295Z,65.92
2022-08-12T17:12:37.666Z,64.92
2022-08-12T17:15:21.434Z,66.25
2022-08-12T17:18:42.262Z,67.38
2022-08-12T17:20:49.421Z,66.66
2022-08-12T17:23:19.120Z,65.59
2022-08-12T17:25:53.071Z,66.67
2022-08-12T17:28:22.692Z,66.89
2022-08-12T17:30:56.466Z,67.05
2022-08-12T17:33:27.076Z,67.21
2022-08-12T17:35:58.559Z,68.49
2022-08-12T17:38:25.283Z,67.67
2022-08-12T17:40:54.546Z,67.51
2022-08-12T17:43:52.068Z,67.74
2022-08-12T17:46:12.892Z,66.21
2022-08-12T17:48:54.962Z,67.86
2022-08-12T17:51:24.531Z,68.29
2022-08-12T17:54:11.279Z,68.36
2022-08-12T17:56:43.188Z,67.81
2022-08-12T17:59:12.310Z,69.26
2022-08-12T18:01:45.640Z,67.78
2022-08-12T18:04:22.814Z,68.33
2022-08-12T18:07:02.482Z,68.08
2022-08-12T18:09:36.479Z,68.41
2022-08-12T18:12:24.341Z,68.96
2022-08-12T18:15:03.040Z,68.97
2022-08-12T18:17:39.244Z,69.07
2022-08-12T18:20:15.386Z,69.18
2022-08-12T18:22:43.519Z,70.86
2022-08-12T18:25:37.842Z,69.50
2022-08-12T18:28:15.759Z,69.28
2022-08-12T18:30:45.412Z,69.65
2022-08-12T18:33:23.856Z,69.46
2022-08-12T18:35:53.819Z,70.38
2022-08-12T18:38:24.738Z,69.88
2022-08-12T18:41:17.509Z,69.74
2022-08-12T18:44:06.090Z,70.93
2022-08-12T18:46:48.875Z,71.47
2022-08-12T18:49:31.949Z,71.75
2022-08-12T18:52:05.428Z,69.28
2022-08-12T18:54:41.516Z,71.29
2022-08-12T18:57:45.823Z,70.08
2022-08-12T19:00:06.329Z,70.54
2022-08-12T19:02:39.871Z,70.85
2022-08-12T19:05:10.956Z,72.21
2022-08-12T19:08:00.304Z,71.31
2022-08-12T19:10:31.172Z,71.39
2022-08-12T19:13:23.114Z,70.83
2022-08-12T19:15:53.615Z,72.09
2022-08-12T19:18:21.964Z,71.25
2022-08-12T19:20:50.644Z,70.58
2022-08-12T19:23:20.977Z,72.54
2022-08-12T19:25:59.268Z,72.04
2022-08-12T19:28:35.728Z,71.15
2022-08-12T19:31:56.827Z,72.42
2022-08-12T19:35:13.868Z,71.89
2022-08-12T19:37:26.808Z,72.24
2022-08-12T19:40:09.127Z,73.17
2022-08-12T19:42:57.810Z,72.65
2022-08-12T19:45:41.835Z,72.69
2022-08-12T19:48:16.772Z,72.02
2022-08-12T19:50:50.325Z,72.63
2022-08-12T19:53:23.024Z,72.18
2022-08-12T19:55:54.188Z,72.84
2022-08-12T19:58:22.605Z,71.96
2022-08-12T20:00:53.529Z,73.47
2022-08-12T20:03:40.006Z,73.34
2022-08-12T20:06:16.045Z,73.61
2022-08-12T20:08:55.684Z,72.64
2022-08-12T20:12:14.048Z,74.14
2022-08-12T20:14:19.563Z,73.37
2022-08-12T20:16:54.286Z,73.35
2022-08-12T20:19:53.318Z,73.14
2022-08-12T20:22:16.777Z,73.49
2022-08-12T20:24:55.225Z,73.58
2022-08-12T20:27:29.691Z,74.28
2022-08-12T20:30:13.659Z,74.20
2022-08-12T20:32:54.097Z,74.94
2022-08-12T20:35:24.782Z,73.63
2022-08-12T20:38:06.290Z,74.37
2022-08-12T20:40:48.051Z,73.16
2022-08-12T20:43:15.704Z,73.25
2022-08-12T20:45:51.138Z,73.78
2022-08-12T20:48:25.544Z,73.51
2022-08-12T20:50:55.659Z,73.97
2022-08-12T20:53:33.039Z,73.54
2022-08-12T20:56:38.957Z,74.34
2022-08-12T20:59:11.668Z,73.44
2022-08-12T21:01:48.655Z,74.42
2022-08-12T21:04:35.827Z,74.14
2022-08-12T21:07:08.959Z,74.22
2022-08-12T21:09:44.468Z,73.75
2022-08-12T21:12:28.552Z,73.35
2022-08-12T21:15:23.304Z,73.25
2022-08-12T21:18:11.299Z,72.92
2022-08-12T21:20:50.860Z,72.98
2022-08-12T21:23:21.213Z,73.20
2022-08-12T21:25:49.203Z,74.00
2022-08-12T21:28:20.653Z,72.91
2022-08-12T21:31:10.664Z,74.07
2022-08-12T21:33:58.548Z,73.88
2022-08-12T21:36:32.223Z,73.83
2022-08-12T21:39:20.701Z,73.60
2022-08-12T21:41:52.278Z,73.19
2022-08-12T21:44:23.916Z,74.15
2022-08-12T21:47:21.110Z,73.34
2022-08-12T21:50:04.151Z,74.47
2022-08-12T21:52:41.141Z,73.42
2022-08-12T21:55:17.935Z,72.11
2022-08-12T21:57:54.328Z,72.90
2022-08-12T22:00:32.567Z,73.59
2022-08-12T22:04:02.162Z,74.22
2022-08-12T22:06:30.566Z,72.66
2022-08-12T22:09:15.603Z,73.41
2022-08-12T22:11:56.362Z,73.03
2022-08-12T22:14:30.059Z,73.68
2022-08-12T22:16:58.588Z,73.96
2022-08-12T22:19:27.717Z,73.91
2022-08-12T22:21:55.876Z,73.70
2022-08-12T22:24:27.736Z,74.24
2022-08-12T22:27:18.126Z,73.29
2022-08-12T22:30:16.413Z,74.38
2022-08-12T22:32:51.672Z,73.94
2022-08-12T22:35:55.346Z,73.70
2022-08-12T22:38:26.646Z,74.13
2022-08-12T22:41:02.063Z,74.42
2022-08-12T22:43:58.973Z,75.16
2022-08-12T22:46:52.942Z,74.49
2022-08-12T22:49:48.804Z,74.51
2022-08-12T22:52:14.144Z,75.39
2022-08-12T22:55:00.040Z,75.21
2022-08-12T22:57:53.636Z,74.94
2022-08-12T23:00:24.131Z,73.79
2022-08-12T23:03:00.467Z,74.86
2022-08-12T23:05:36.838Z,73.41
2022-08-12T23:08:30.013Z,74.28
2022-08-12T23:11:00.400Z,75.09
2022-08-12T23:13:45.830Z,73.98
2022-08-12T23:16:28.229Z,75.04
2022-08-12T23:19:10.467Z,73.37
2022-08-12T23:22:04.486Z,74.22
2022-08-12T23:24:38.785Z,74.08
2022-08-12T23:27:44.442Z,74.82
2022-08-12T23:30:19.510Z,74.67
2022-08-12T23:32:54.593Z,74.09
2022-08-12T23:35:45.595Z,74.53
2022-08-12T23:38:19.010Z,75.01
2022-08-12T23:41:00.823Z,74.15
2022-08-12T23:43:39.750Z,73.84
2022-08-12T23:46:18.551Z,75.28
2022-08-12T23:48:48.046Z,75.71
2022-08-12T23:51:24.573Z,75.80
2022-08-12T23:54:02.586Z,75.52
2022-08-12T23:56:33.693Z,75.36
2022-08-12T23:59:10.330Z,74.31
